createdAt,value
2019-04-28T00:01:23.799Z,94787.45
2019-04-28T00:03:51.620Z,94776.71
2019-04-28T00:06:17.081Z,94782.06
2019-04-28T00:08:43.733Z,94785.72
2019-04-28T00:11:11.716Z,94777.03
2019-04-28T00:13:37.012Z,94792.81
2019-04-28T00:16:03.647Z,94791.54
2019-04-28T00:18:31.682Z,94792.06
2019-04-28T00:20:56.942Z,94793.48
2019-04-28T00:23:23.584Z,94792.53
2019-04-28T00:25:51.433Z,94788.77
2019-04-28T00:28:17.175Z,94792.06
2019-04-28T00:33:11.714Z,94799.85
2019-04-28T00:35:37.109Z,94798.78
2019-04-28T00:38:03.741Z,94795.88
2019-04-28T00:40:31.649Z,94795.94
2019-04-28T00:42:57.062Z,94799.36
2019-04-28T00:45:23.713Z,94794.06
2019-04-28T00:47:51.066Z,94801.27
2019-04-28T00:50:16.995Z,94795.25
2019-04-28T00:55:11.058Z,94797.10
2019-04-28T00:57:36.942Z,94793.86
2019-04-28T01:00:03.579Z,94793.95
2019-04-28T01:02:31.215Z,94796.00
2019-04-28T01:04:56.868Z,94799.09
2019-04-28T01:07:23.543Z,94800.05
2019-04-28T01:09:51.671Z,94797.39
2019-04-28T01:12:16.844Z,94800.11
2019-04-28T01:14:43.612Z,94801.88
2019-04-28T01:17:10.135Z,94803.53
2019-04-28T01:19:36.771Z,94798.86
2019-04-28T01:22:03.410Z,94801.77
2019-04-28T01:24:30.062Z,94799.94
2019-04-28T01:29:23.388Z,94808.27
2019-04-28T01:31:50.035Z,94807.58
2019-04-28T01:34:16.679Z,94803.59
2019-04-28T01:36:43.315Z,94806.33
2019-04-28T01:39:10.163Z,94807.70
2019-04-28T01:41:36.610Z,94804.99
2019-04-28T01:44:03.247Z,94802.47
2019-04-28T01:46:29.904Z,94801.32
2019-04-28T01:48:56.649Z,94803.92
2019-04-28T01:51:23.303Z,94800.45
2019-04-28T01:53:50.488Z,94799.98
2019-04-28T01:56:16.616Z,94802.09
2019-04-28T01:58:43.259Z,94804.67
2019-04-28T02:01:10.596Z,94800.69
2019-04-28T02:03:36.536Z,94798.10
2019-04-28T02:06:03.183Z,94796.59
2019-04-28T02:08:30.346Z,94802.33
2019-04-28T02:13:23.224Z,94798.98
2019-04-28T02:15:50.184Z,94792.91
2019-04-28T02:18:19.951Z,94783.77
2019-04-28T02:20:45.218Z,94783.59
2019-04-28T02:23:11.873Z,94781.56
2019-04-28T02:25:39.874Z,94781.36
2019-04-28T02:28:05.154Z,94782.63
2019-04-28T02:30:42.221Z,94791.59
2019-04-28T02:33:01.332Z,94786.59
2019-04-28T02:35:25.082Z,94781.50
2019-04-28T02:37:51.718Z,94792.03
2019-04-28T02:40:20.660Z,94798.22
2019-04-28T02:42:46.079Z,94801.13
2019-04-28T02:45:12.717Z,94797.84
2019-04-28T02:47:41.988Z,94795.93
2019-04-28T02:50:06.009Z,94803.20
2019-04-28T02:52:32.641Z,94807.30
2019-04-28T02:54:59.560Z,94806.88
2019-04-28T02:57:25.923Z,94806.12
2019-04-28T02:59:52.622Z,94811.47
2019-04-28T03:02:20.756Z,94808.90
2019-04-28T03:07:14.647Z,94822.70
2019-04-28T03:09:40.409Z,94818.09
2019-04-28T03:12:05.841Z,94816.38
2019-04-28T03:14:32.488Z,94820.00
2019-04-28T03:17:00.824Z,94822.97
2019-04-28T03:19:25.787Z,94826.99
2019-04-28T03:21:52.438Z,94829.27
2019-04-28T03:24:21.253Z,94834.44
2019-04-28T03:26:45.712Z,94830.58
2019-04-28T03:29:12.355Z,94837.90
2019-04-28T03:32:04.252Z,94834.20
2019-04-28T03:34:05.629Z,94846.81
2019-04-28T03:36:33.369Z,94854.83
2019-04-28T03:39:00.762Z,94856.52
2019-04-28T03:41:25.569Z,94860.94
2019-04-28T03:43:52.221Z,94864.05
2019-04-28T03:46:20.450Z,94867.46
2019-04-28T03:48:45.541Z,94879.37
2019-04-28T03:51:13.474Z,94879.00
2019-04-28T03:53:41.050Z,94883.38
2019-04-28T03:56:05.508Z,94890.32
2019-04-28T03:58:32.153Z,94890.11
2019-04-28T04:01:02.630Z,94885.45
2019-04-28T04:03:25.447Z,94893.01
2019-04-28T04:05:52.079Z,94895.29
2019-04-28T04:08:20.979Z,94890.11
2019-04-28T04:10:45.376Z,94894.78
2019-04-28T04:13:12.014Z,94898.66
2019-04-28T04:15:41.092Z,94900.16
2019-04-28T04:18:05.311Z,94909.94
2019-04-28T04:20:31.948Z,94908.66
2019-04-28T04:23:01.257Z,94915.06
2019-04-28T04:25:25.230Z,94914.69
2019-04-28T04:27:51.872Z,94917.78
2019-04-28T04:30:20.709Z,94914.12
2019-04-28T04:32:45.159Z,94920.34
2019-04-28T04:35:11.861Z,94917.20
2019-04-28T04:37:41.353Z,94914.11
2019-04-28T04:40:07.998Z,94924.16
2019-04-28T04:42:34.642Z,94927.94
2019-04-28T04:45:01.293Z,94928.17
2019-04-28T04:47:32.462Z,94920.97
2019-04-28T04:49:54.580Z,94928.77
2019-04-28T04:54:47.897Z,94928.20
2019-04-28T04:57:14.631Z,94931.00
2019-04-28T04:59:41.267Z,94926.56
2019-04-28T05:02:09.819Z,94928.98
2019-04-28T05:04:34.597Z,94926.31
2019-04-28T05:07:01.234Z,94932.75
2019-04-28T05:09:29.348Z,94929.21
2019-04-28T05:11:54.570Z,94929.23
2019-04-28T05:16:49.254Z,94929.77
2019-04-28T05:19:14.479Z,94928.48
2019-04-28T05:21:41.154Z,94928.59
2019-04-28T05:24:09.283Z,94927.03
2019-04-28T05:26:34.472Z,94934.50
2019-04-28T05:29:01.133Z,94928.54
2019-04-28T05:31:29.424Z,94938.39
2019-04-28T05:33:54.424Z,94939.41
2019-04-28T05:36:21.057Z,94940.97
2019-04-28T05:38:49.567Z,94938.80
2019-04-28T05:41:14.390Z,94939.59
2019-04-28T05:43:41.070Z,94933.80
2019-04-28T05:46:07.694Z,94931.05
2019-04-28T05:48:34.342Z,94932.69
2019-04-28T05:51:01.801Z,94930.53
2019-04-28T05:53:27.636Z,94928.73
2019-04-28T05:55:54.278Z,94931.56
2019-04-28T06:00:47.558Z,94927.08
2019-04-28T06:03:14.189Z,94932.84
2019-04-28T06:05:40.876Z,94931.08
2019-04-28T06:08:07.512Z,94933.86
2019-04-28T06:10:34.204Z,94929.11
2019-04-28T06:13:00.835Z,94935.64
2019-04-28T06:15:29.380Z,94932.95
2019-04-28T06:17:54.155Z,94935.23
2019-04-28T06:20:20.777Z,94929.80
2019-04-28T06:22:47.422Z,94923.98
2019-04-28T06:25:14.064Z,94921.50
2019-04-28T06:27:40.710Z,94930.63
2019-04-28T06:30:07.352Z,94926.63
2019-04-28T06:35:00.624Z,94930.88
2019-04-28T06:37:27.253Z,94926.08
2019-04-28T06:39:53.933Z,94931.89
2019-04-28T06:42:20.574Z,94931.06
2019-04-28T06:44:47.300Z,94922.72
2019-04-28T06:47:16.667Z,94923.13
2019-04-28T06:49:40.620Z,94929.11
2019-04-28T06:52:07.256Z,94923.94
2019-04-28T06:54:33.986Z,94925.17
2019-04-28T06:57:00.619Z,94917.66
2019-04-28T06:59:27.277Z,94916.55
2019-04-28T07:01:53.952Z,94915.30
2019-04-28T07:04:20.581Z,94916.23
2019-04-28T07:09:13.943Z,94911.42
2019-04-28T07:11:41.580Z,94916.28
2019-04-28T07:14:07.258Z,94915.75
2019-04-28T07:16:33.876Z,94916.58
2019-04-28T07:19:00.523Z,94921.58
2019-04-28T07:21:27.173Z,94924.77
2019-04-28T07:23:53.811Z,94931.00
2019-04-28T07:26:20.472Z,94929.25
2019-04-28T07:28:47.218Z,94918.45
2019-04-28T07:31:13.872Z,94929.27
2019-04-28T07:33:40.506Z,94920.14
2019-04-28T07:36:07.304Z,94921.83
2019-04-28T07:38:33.981Z,94927.26
2019-04-28T07:41:00.626Z,94927.53
2019-04-28T07:43:27.353Z,94930.22
2019-04-28T07:45:53.937Z,94928.36
2019-04-28T07:48:20.604Z,94927.63
2019-04-28T07:50:47.289Z,94918.88
2019-04-28T07:55:40.561Z,94920.55
2019-04-28T07:58:07.198Z,94921.65
2019-04-28T08:00:33.842Z,94925.63
2019-04-28T08:03:00.499Z,94922.75
2019-04-28T08:05:27.129Z,94932.23
2019-04-28T08:07:53.770Z,94925.81
2019-04-28T08:10:20.444Z,94923.27
2019-04-28T08:12:49.193Z,94926.97
2019-04-28T08:15:13.728Z,94930.11
2019-04-28T08:17:40.370Z,94927.45
2019-04-28T08:20:07.065Z,94929.12
2019-04-28T08:22:33.704Z,94934.68
2019-04-28T08:25:00.365Z,94935.86
2019-04-28T08:29:58.769Z,94931.80
2019-04-28T08:32:20.319Z,94926.97
2019-04-28T08:34:48.117Z,94918.30
2019-04-28T08:37:14.760Z,94915.78
2019-04-28T08:39:41.455Z,94917.84
2019-04-28T08:42:08.091Z,94922.76
2019-04-28T08:44:34.730Z,94921.73
2019-04-28T08:47:01.372Z,94917.66
2019-04-28T08:49:28.015Z,94922.33
2019-04-28T08:51:54.659Z,94918.03
2019-04-28T08:54:21.335Z,94918.41
2019-04-28T08:56:47.980Z,94917.50
2019-04-28T08:59:14.637Z,94927.45
2019-04-28T09:04:15.218Z,94911.80
2019-04-28T09:06:34.591Z,94910.86
2019-04-28T09:09:01.303Z,94906.59
2019-04-28T09:11:27.937Z,94910.67
2019-04-28T09:13:54.621Z,94904.61
2019-04-28T09:16:21.240Z,94901.17
2019-04-28T09:18:47.935Z,94901.52
2019-04-28T09:21:14.610Z,94906.09
2019-04-28T09:23:41.249Z,94906.65
2019-04-28T09:26:07.893Z,94913.34
2019-04-28T09:28:34.547Z,94905.31
2019-04-28T09:31:01.191Z,94903.53
2019-04-28T09:33:27.946Z,94902.97
2019-04-28T09:38:21.238Z,94900.63
2019-04-28T09:40:47.914Z,94902.30
2019-04-28T09:43:14.590Z,94898.19
2019-04-28T09:45:41.233Z,94901.73
2019-04-28T09:48:07.867Z,94895.94
2019-04-28T09:50:34.555Z,94902.64
2019-04-28T09:53:01.237Z,94897.70
2019-04-28T09:55:27.881Z,94899.05
2019-04-28T09:57:54.923Z,94896.31
2019-04-28T10:00:21.200Z,94897.36
2019-04-28T10:02:47.992Z,94885.02
2019-04-28T10:05:14.624Z,94885.61
2019-04-28T10:07:41.265Z,94877.90
2019-04-28T10:10:07.912Z,94879.30
2019-04-28T10:12:34.565Z,94881.60
2019-04-28T10:15:01.264Z,94876.23
2019-04-28T10:17:27.933Z,94877.63
2019-04-28T10:19:54.591Z,94869.80
2019-04-28T10:22:21.299Z,94869.16
2019-04-28T10:24:47.934Z,94865.88
2019-04-28T10:27:14.620Z,94870.09
2019-04-28T10:29:41.264Z,94877.07
2019-04-28T10:32:07.904Z,94865.16
2019-04-28T10:34:34.611Z,94856.41
2019-04-28T10:37:01.316Z,94860.32
2019-04-28T10:39:27.994Z,94855.76
2019-04-28T10:41:54.627Z,94849.13
2019-04-28T10:46:47.917Z,94849.70
2019-04-28T10:49:14.550Z,94853.96
2019-04-28T10:51:41.281Z,94846.69
2019-04-28T10:54:07.921Z,94851.17
2019-04-28T10:56:34.599Z,94846.53
2019-04-28T10:59:01.283Z,94848.54
2019-04-28T11:01:27.920Z,94833.56
2019-04-28T11:03:54.567Z,94835.34
2019-04-28T11:06:21.222Z,94837.08
2019-04-28T11:08:47.859Z,94833.56
2019-04-28T11:11:14.538Z,94833.94
2019-04-28T11:13:41.176Z,94828.89
2019-04-28T11:16:07.816Z,94825.97
2019-04-28T11:18:34.477Z,94824.06
2019-04-28T11:21:01.157Z,94810.87
2019-04-28T11:23:27.795Z,94816.55
2019-04-28T11:25:54.505Z,94822.22
2019-04-28T11:28:21.151Z,94816.09
2019-04-28T11:30:47.787Z,94810.97
2019-04-28T11:33:14.444Z,94807.80
2019-04-28T11:35:41.125Z,94807.22
2019-04-28T11:38:07.808Z,94804.98
2019-04-28T11:40:34.454Z,94798.77
2019-04-28T11:43:01.138Z,94793.48
2019-04-28T11:45:27.792Z,94787.63
2019-04-28T11:47:54.428Z,94778.23
2019-04-28T11:50:21.080Z,94785.29
2019-04-28T11:52:47.727Z,94773.37
2019-04-28T11:55:14.408Z,94772.55
2019-04-28T11:57:41.063Z,94768.47
2019-04-28T12:00:07.849Z,94770.50
2019-04-28T12:02:34.543Z,94766.05
2019-04-28T12:07:27.842Z,94762.96
2019-04-28T12:10:04.462Z,94754.32
2019-04-28T12:12:21.219Z,94751.78
2019-04-28T12:14:47.878Z,94751.27
2019-04-28T12:17:14.711Z,94756.73
2019-04-28T12:19:41.183Z,94755.45
2019-04-28T12:22:07.880Z,94748.09
2019-04-28T12:24:34.529Z,94742.63
2019-04-28T12:27:01.168Z,94739.91
2019-04-28T12:29:27.886Z,94744.09
2019-04-28T12:31:54.521Z,94736.09
2019-04-28T12:34:21.194Z,94737.79
2019-04-28T12:36:47.838Z,94733.78
2019-04-28T12:39:14.492Z,94739.53
2019-04-28T12:41:41.126Z,94742.70
2019-04-28T12:44:07.941Z,94730.33
2019-04-28T12:46:34.619Z,94738.44
2019-04-28T12:49:01.257Z,94727.34
2019-04-28T12:51:27.954Z,94726.63
2019-04-28T12:53:54.652Z,94730.81
2019-04-28T12:56:21.301Z,94719.65
2019-04-28T12:58:47.945Z,94725.04
2019-04-28T13:01:14.584Z,94713.39
2019-04-28T13:03:41.234Z,94722.98
2019-04-28T13:06:07.907Z,94720.30
2019-04-28T13:08:34.543Z,94719.70
2019-04-28T13:11:01.180Z,94719.33
2019-04-28T13:13:27.830Z,94712.92
2019-04-28T13:15:54.463Z,94710.88
2019-04-28T13:18:21.106Z,94706.41
2019-04-28T13:20:47.747Z,94701.12
2019-04-28T13:23:14.392Z,94701.55
2019-04-28T13:28:07.677Z,94704.06
2019-04-28T13:30:34.360Z,94695.67
2019-04-28T13:33:01.043Z,94695.95
2019-04-28T13:35:27.687Z,94695.30
2019-04-28T13:37:54.330Z,94694.28
2019-04-28T13:40:21.021Z,94693.73
2019-04-28T13:42:47.641Z,94694.48
2019-04-28T13:45:14.276Z,94694.00
2019-04-28T13:47:40.929Z,94692.70
2019-04-28T13:50:07.609Z,94685.14
2019-04-28T13:52:34.340Z,94686.73
2019-04-28T13:55:00.881Z,94682.92
2019-04-28T13:57:27.548Z,94682.92
2019-04-28T14:02:20.874Z,94679.92
2019-04-28T14:04:47.548Z,94683.67
2019-04-28T14:07:14.217Z,94685.27
2019-04-28T14:09:40.840Z,94675.75
2019-04-28T14:12:07.515Z,94667.20
2019-04-28T14:14:34.152Z,94668.13
2019-04-28T14:17:00.840Z,94665.98
2019-04-28T14:19:27.523Z,94676.48
2019-04-28T14:21:56.321Z,94670.91
2019-04-28T14:24:20.819Z,94661.72
2019-04-28T14:26:47.472Z,94676.42
2019-04-28T14:29:14.154Z,94664.70
2019-04-28T14:31:40.781Z,94665.18
2019-04-28T14:36:41.938Z,94657.19
2019-04-28T14:39:00.748Z,94650.00
2019-04-28T14:41:27.402Z,94655.84
2019-04-28T14:43:54.173Z,94663.02
2019-04-28T14:46:20.812Z,94656.31
2019-04-28T14:48:47.471Z,94653.14
2019-04-28T14:51:14.176Z,94647.66
2019-04-28T14:53:40.736Z,94648.78
2019-04-28T14:56:07.598Z,94647.91
2019-04-28T14:58:34.026Z,94656.65
2019-04-28T15:01:00.699Z,94654.14
2019-04-28T15:03:27.347Z,94652.25
2019-04-28T15:05:53.974Z,94651.11
2019-04-28T15:08:20.622Z,94649.17
2019-04-28T15:10:47.275Z,94654.38
2019-04-28T15:13:13.940Z,94648.13
2019-04-28T15:15:40.602Z,94650.28
2019-04-28T15:18:09.790Z,94654.46
2019-04-28T15:23:03.190Z,94654.44
2019-04-28T15:25:29.791Z,94656.09
2019-04-28T15:27:56.428Z,94656.91
2019-04-28T15:30:23.114Z,94656.64
2019-04-28T15:32:49.782Z,94652.28
2019-04-28T15:35:16.397Z,94648.72
2019-04-28T15:37:43.043Z,94651.77
2019-04-28T15:40:09.680Z,94648.16
2019-04-28T15:42:36.314Z,94644.80
2019-04-28T15:45:02.993Z,94642.37
2019-04-28T15:47:29.630Z,94640.97
2019-04-28T15:49:56.313Z,94646.37
2019-04-28T15:52:22.950Z,94654.36
2019-04-28T15:57:16.281Z,94651.09
2019-04-28T15:59:42.924Z,94651.36
2019-04-28T16:02:09.636Z,94642.80
2019-04-28T16:04:36.273Z,94641.95
2019-04-28T16:07:02.954Z,94644.55
2019-04-28T16:09:29.605Z,94638.95
2019-04-28T16:11:56.289Z,94638.49
2019-04-28T16:14:22.927Z,94634.39
2019-04-28T16:16:49.576Z,94637.38
2019-04-28T16:19:16.273Z,94634.30
2019-04-28T16:21:42.876Z,94638.26
2019-04-28T16:24:09.567Z,94643.00
2019-04-28T16:26:36.205Z,94633.63
2019-04-28T16:29:02.858Z,94631.94
2019-04-28T16:31:29.541Z,94630.92
2019-04-28T16:33:56.176Z,94623.77
2019-04-28T16:36:22.850Z,94629.13
2019-04-28T16:38:49.483Z,94624.67
2019-04-28T16:41:16.129Z,94628.75
2019-04-28T16:43:42.770Z,94628.37
2019-04-28T16:46:09.406Z,94629.31
2019-04-28T16:48:36.057Z,94634.99
2019-04-28T16:51:02.700Z,94636.81
2019-04-28T16:53:29.338Z,94637.27
2019-04-28T16:55:56.028Z,94642.95
2019-04-28T16:58:22.679Z,94649.90
2019-04-28T17:00:52.207Z,94647.64
2019-04-28T17:03:18.847Z,94647.46
2019-04-28T17:05:45.535Z,94649.58
2019-04-28T17:08:12.179Z,94660.34
2019-04-28T17:10:38.823Z,94664.69
2019-04-28T17:13:05.472Z,94675.45
2019-04-28T17:17:58.820Z,94681.16
2019-04-28T17:20:25.474Z,94679.55
2019-04-28T17:22:52.107Z,94680.41
2019-04-28T17:25:18.753Z,94679.92
2019-04-28T17:27:45.383Z,94688.55
2019-04-28T17:30:12.072Z,94690.69
2019-04-28T17:32:38.754Z,94691.67
2019-04-28T17:35:05.399Z,94682.83
2019-04-28T17:37:32.052Z,94677.34
2019-04-28T17:39:58.819Z,94679.48
2019-04-28T17:42:25.455Z,94687.80
2019-04-28T17:44:52.092Z,94686.68
2019-04-28T17:47:18.758Z,94693.53
2019-04-28T17:52:12.032Z,94687.66
2019-04-28T17:54:38.739Z,94689.13
2019-04-28T17:57:05.317Z,94695.72
2019-04-28T17:59:31.949Z,94699.48
2019-04-28T18:01:58.595Z,94702.80
2019-04-28T18:04:25.231Z,94696.17
2019-04-28T18:06:51.863Z,94704.37
2019-04-28T18:09:18.505Z,94702.04
2019-04-28T18:14:11.801Z,94703.96
2019-04-28T18:16:38.449Z,94707.34
2019-04-28T18:19:05.090Z,94706.06
2019-04-28T18:21:31.730Z,94710.14
2019-04-28T18:26:25.015Z,94710.20
2019-04-28T18:28:51.661Z,94712.23
2019-04-28T18:31:18.295Z,94712.84
2019-04-28T18:33:44.927Z,94711.41
2019-04-28T18:36:11.568Z,94716.75
2019-04-28T18:38:38.264Z,94717.61
2019-04-28T18:41:04.922Z,94721.79
2019-04-28T18:43:31.565Z,94724.84
2019-04-28T18:45:58.207Z,94726.00
2019-04-28T18:48:24.855Z,94732.20
2019-04-28T18:50:51.493Z,94729.05
2019-04-28T18:53:18.139Z,94737.66
2019-04-28T18:55:44.790Z,94740.67
2019-04-28T19:00:38.074Z,94744.47
2019-04-28T19:03:04.725Z,94750.66
2019-04-28T19:05:31.360Z,94751.67
2019-04-28T19:07:58.003Z,94752.80
2019-04-28T19:10:24.643Z,94746.48
2019-04-28T19:12:51.293Z,94745.10
2019-04-28T19:15:17.940Z,94749.46
2019-04-28T19:17:44.587Z,94747.16
2019-04-28T19:20:13.715Z,94742.95
2019-04-28T19:22:37.877Z,94741.63
2019-04-28T19:25:04.524Z,94751.49
2019-04-28T19:27:31.164Z,94750.50
2019-04-28T19:29:57.794Z,94750.98
2019-04-28T19:32:24.431Z,94754.09
2019-04-28T19:34:51.066Z,94759.50
2019-04-28T19:37:17.709Z,94757.20
2019-04-28T19:39:44.351Z,94756.15
2019-04-28T19:42:10.990Z,94750.19
2019-04-28T19:44:37.630Z,94751.97
2019-04-28T19:47:04.272Z,94747.81
2019-04-28T19:49:30.911Z,94749.34
2019-04-28T19:51:57.555Z,94752.45
2019-04-28T19:54:24.201Z,94751.31
2019-04-28T19:56:50.885Z,94752.41
2019-04-28T19:59:17.532Z,94752.28
2019-04-28T20:01:44.204Z,94746.02
2019-04-28T20:04:10.824Z,94751.30
2019-04-28T20:06:37.472Z,94752.37
2019-04-28T20:09:04.114Z,94754.04
2019-04-28T20:11:30.818Z,94754.74
2019-04-28T20:13:57.462Z,94759.86
2019-04-28T20:16:24.112Z,94754.98
2019-04-28T20:18:50.750Z,94753.04
2019-04-28T20:21:17.392Z,94756.97
2019-04-28T20:23:44.035Z,94744.77
2019-04-28T20:26:10.681Z,94747.54
2019-04-28T20:28:37.317Z,94743.53
2019-04-28T20:31:03.970Z,94740.47
2019-04-28T20:33:30.600Z,94747.08
2019-04-28T20:35:57.278Z,94748.58
2019-04-28T20:38:23.894Z,94754.26
2019-04-28T20:40:50.520Z,94753.83
2019-04-28T20:43:17.175Z,94753.97
2019-04-28T20:45:43.853Z,94757.50
2019-04-28T20:48:10.496Z,94751.48
2019-04-28T20:50:37.136Z,94757.08
2019-04-28T20:55:30.420Z,94748.59
2019-04-28T20:57:57.065Z,94746.34
2019-04-28T21:00:23.797Z,94739.12
2019-04-28T21:02:50.453Z,94738.25
2019-04-28T21:05:17.104Z,94737.16
2019-04-28T21:07:43.742Z,94737.73
2019-04-28T21:10:10.381Z,94736.72
2019-04-28T21:12:37.028Z,94743.49
2019-04-28T21:15:03.730Z,94743.44
2019-04-28T21:17:30.313Z,94744.25
2019-04-28T21:19:56.953Z,94735.43
2019-04-28T21:22:23.613Z,94739.50
2019-04-28T21:24:50.260Z,94738.64
2019-04-28T21:27:16.907Z,94740.58
2019-04-28T21:29:43.627Z,94741.59
2019-04-28T21:32:10.264Z,94744.58
2019-04-28T21:34:36.903Z,94738.15
2019-04-28T21:37:03.540Z,94746.50
2019-04-28T21:39:30.187Z,94747.53
2019-04-28T21:41:56.825Z,94746.78
2019-04-28T21:44:23.501Z,94739.84
2019-04-28T21:46:50.134Z,94740.09
2019-04-28T21:49:16.782Z,94738.02
2019-04-28T21:51:43.420Z,94732.05
2019-04-28T21:54:10.117Z,94737.20
2019-04-28T21:56:36.752Z,94738.89
2019-04-28T21:59:03.397Z,94735.36
2019-04-28T22:01:30.120Z,94739.06
2019-04-28T22:03:56.760Z,94742.51
2019-04-28T22:06:23.416Z,94745.09
2019-04-28T22:08:50.086Z,94739.15
2019-04-28T22:11:16.714Z,94735.36
2019-04-28T22:16:10.014Z,94744.34
2019-04-28T22:18:36.656Z,94740.05
2019-04-28T22:21:03.296Z,94745.34
2019-04-28T22:23:29.931Z,94736.64
2019-04-28T22:25:56.568Z,94738.19
2019-04-28T22:28:23.239Z,94734.92
2019-04-28T22:30:49.883Z,94732.64
2019-04-28T22:33:16.552Z,94731.25
2019-04-28T22:35:43.188Z,94737.33
2019-04-28T22:38:09.835Z,94733.42
2019-04-28T22:40:36.484Z,94730.00
2019-04-28T22:43:03.118Z,94730.18
2019-04-28T22:45:29.808Z,94732.15
2019-04-28T22:50:23.123Z,94727.60
2019-04-28T22:52:49.763Z,94732.03
2019-04-28T22:55:16.406Z,94728.79
2019-04-28T22:57:43.072Z,94732.34
2019-04-28T23:00:09.705Z,94729.42
2019-04-28T23:02:36.387Z,94723.05
2019-04-28T23:05:03.026Z,94723.20
2019-04-28T23:07:29.674Z,94724.59
2019-04-28T23:09:56.307Z,94720.28
2019-04-28T23:12:22.948Z,94721.88
2019-04-28T23:14:49.587Z,94722.88
2019-04-28T23:17:16.239Z,94720.11
2019-04-28T23:19:42.885Z,94719.47
2019-04-28T23:22:09.522Z,94718.97
2019-04-28T23:24:36.162Z,94721.87
2019-04-28T23:27:02.875Z,94719.73
2019-04-28T23:29:30.703Z,94713.33
2019-04-28T23:31:56.153Z,94718.77
2019-04-28T23:34:22.797Z,94714.66
2019-04-28T23:36:49.437Z,94713.80
2019-04-28T23:39:16.075Z,94712.41
2019-04-28T23:41:42.710Z,94712.58
2019-04-28T23:44:09.356Z,94717.06
2019-04-28T23:46:36.001Z,94712.95
2019-04-28T23:49:02.646Z,94709.16
2019-04-28T23:51:29.298Z,94710.44
2019-04-28T23:53:55.950Z,94707.72
2019-04-28T23:56:22.586Z,94713.65
2019-04-28T23:58:49.244Z,94707.77
